Time;durP1;ratioP1;P1;durP2;ratioP2;P2;SDS_P1;SDS_P2;PMS_P1;PMS_P2;Temp;Humidity;BMP_temperature;BMP_pressure;BME280_temperature;BME280_humidity;BME280_pressure;Samples;Min_cycle;Max_cycle;Signal;HPM_P1;HPM_P2
2022/01/09 00:00:16;;;;;;;2.35;2.25;;;14.80;70.00;;;;;;4112649;28;20113;-63
2022/01/09 00:02:41;;;;;;;2.15;2.05;;;14.80;70.10;;;;;;4112542;28;20105;-63
2022/01/09 00:05:05;;;;;;;2.33;2.00;;;14.70;70.10;;;;;;4128135;28;20054;-64
2022/01/09 00:07:32;;;;;;;2.03;1.92;;;14.80;70.30;;;;;;4113305;28;20047;-65
2022/01/09 00:09:56;;;;;;;2.05;1.90;;;14.80;70.30;;;;;;4112315;28;20443;-64
2022/01/09 00:12:19;;;;;;;3.65;2.08;;;14.80;70.00;;;;;;4112048;28;20113;-64
2022/01/09 00:14:42;;;;;;;1.80;1.70;;;14.80;69.90;;;;;;4123137;28;20046;-63
2022/01/09 00:17:06;;;;;;;2.00;1.90;;;14.80;69.80;;;;;;4117171;28;20050;-63
2022/01/09 00:19:30;;;;;;;2.65;2.10;;;14.90;69.80;;;;;;4111286;28;20086;-63
2022/01/09 00:21:53;;;;;;;2.10;2.00;;;14.90;69.60;;;;;;4114734;28;20121;-63
2022/01/09 00:24:16;;;;;;;2.08;1.98;;;14.90;69.40;;;;;;4128206;28;20457;-63
2022/01/09 00:26:39;;;;;;;1.90;1.80;;;15.00;69.60;;;;;;4121465;28;20059;-63
2022/01/09 00:29:02;;;;;;;2.13;1.95;;;15.00;69.50;;;;;;4112385;28;20102;-63
2022/01/09 00:31:26;;;;;;;1.90;1.80;;;15.10;69.20;;;;;;4111931;28;20050;-63
2022/01/09 00:33:48;;;;;;;2.00;1.90;;;15.30;68.80;;;;;;4096470;28;20114;-63
2022/01/09 00:36:13;;;;;;;1.95;1.85;;;15.40;68.10;;;;;;4099294;28;20043;-63
2022/01/09 00:38:36;;;;;;;2.03;1.88;;;15.50;67.80;;;;;;4112054;28;20047;-63
2022/01/09 00:40:59;;;;;;;1.80;1.80;;;15.50;67.50;;;;;;4112216;28;20051;-63
2022/01/09 00:43:23;;;;;;;5.00;1.63;;;15.50;67.40;;;;;;4095694;28;20484;-63
2022/01/09 00:45:46;;;;;;;1.95;1.85;;;15.50;68.20;;;;;;4097470;28;20102;-63
2022/01/09 00:48:10;;;;;;;2.20;2.10;;;15.50;67.40;;;;;;4111909;28;20094;-63
2022/01/09 00:50:36;;;;;;;2.20;2.10;;;15.50;67.50;;;;;;4111753;28;20050;-63
2022/01/09 00:53:00;;;;;;;2.25;2.15;;;15.40;67.60;;;;;;4124342;28;20218;-63
2022/01/09 00:55:23;;;;;;;2.17;2.08;;;15.40;67.80;;;;;;4127869;28;20411;-63
2022/01/09 00:57:46;;;;;;;2.00;1.77;;;15.40;67.90;;;;;;4095692;28;20136;-63
2022/01/09 01:00:10;;;;;;;2.10;1.90;;;15.40;67.90;;;;;;4095821;28;20082;-63
2022/01/09 01:02:33;;;;;;;2.05;1.95;;;15.40;68.00;;;;;;4118996;28;20104;-63
2022/01/09 01:04:57;;;;;;;2.13;2.03;;;15.40;68.00;;;;;;4127777;28;20046;-63
2022/01/09 01:07:21;;;;;;;2.20;2.10;;;15.40;68.10;;;;;;4111584;28;20114;-63
2022/01/09 01:09:45;;;;;;;2.10;2.00;;;15.40;68.10;;;;;;4111653;28;20050;-71
2022/01/09 01:12:08;;;;;;;2.40;2.20;;;15.40;67.90;;;;;;4119766;28;20051;-71
2022/01/09 01:14:32;;;;;;;1.67;1.65;;;15.50;67.70;;;;;;4127833;28;20046;-71
2022/01/09 01:16:56;;;;;;;1.95;1.70;;;15.50;67.60;;;;;;4115060;28;20054;-71
2022/01/09 01:19:19;;;;;;;2.15;2.05;;;15.50;67.50;;;;;;4111845;28;20116;-71
2022/01/09 01:21:42;;;;;;;1.60;1.60;;;15.50;67.50;;;;;;4111846;28;20051;-71
2022/01/09 01:24:05;;;;;;;2.08;1.98;;;15.50;67.50;;;;;;4111377;28;20050;-71
2022/01/09 01:26:29;;;;;;;2.20;2.10;;;15.40;67.60;;;;;;4109752;28;20522;-71
2022/01/09 01:28:52;;;;;;;1.88;1.80;;;15.40;67.80;;;;;;4111643;28;20047;-71
2022/01/09 01:31:15;;;;;;;2.30;2.20;;;15.30;68.00;;;;;;4110949;28;20051;-71
2022/01/09 01:33:39;;;;;;;1.63;1.63;;;15.30;68.10;;;;;;4127629;28;20042;-72
2022/01/09 01:36:02;;;;;;;2.30;2.20;;;15.30;68.10;;;;;;4119493;28;20054;-72
2022/01/09 01:38:25;;;;;;;1.85;1.85;;;15.30;68.00;;;;;;4111474;28;20496;-71
2022/01/09 01:40:48;;;;;;;2.33;2.22;;;15.30;68.10;;;;;;4111123;28;20538;-71
2022/01/09 01:43:12;;;;;;;2.22;2.13;;;15.30;69.20;;;;;;4126897;28;20050;-71
2022/01/09 01:45:35;;;;;;;2.10;2.00;;;15.40;68.20;;;;;;4120480;28;20101;-71
2022/01/09 01:48:05;;;;;;;2.03;1.92;;;15.40;68.10;;;;;;4110282;28;20478;-71
2022/01/09 01:50:34;;;;;;;2.22;2.13;;;15.40;67.90;;;;;;4111161;28;20058;-72
2022/01/09 01:52:58;;;;;;;2.20;2.00;;;15.40;67.90;;;;;;4110305;28;20189;-72
2022/01/09 01:55:21;;;;;;;2.35;2.17;;;15.50;67.80;;;;;;4122569;28;20054;-71
2022/01/09 01:57:45;;;;;;;2.10;2.00;;;15.50;67.80;;;;;;4111283;28;20105;-71
2022/01/09 02:00:12;;;;;;;2.67;2.47;;;15.50;67.80;;;;;;4122595;28;20058;-71
2022/01/09 02:02:35;;;;;;;2.28;2.17;;;15.50;67.70;;;;;;4126760;28;20042;-70
2022/01/09 02:04:58;;;;;;;2.25;2.15;;;15.40;67.80;;;;;;4112490;28;20097;-71
2022/01/09 02:07:22;;;;;;;2.00;1.90;;;15.40;68.00;;;;;;4111107;28;20051;-71
2022/01/09 02:09:45;;;;;;;2.38;2.28;;;15.40;68.10;;;;;;4114698;28;20092;-70
2022/01/09 02:12:09;;;;;;;2.10;2.00;;;15.40;68.10;;;;;;4126924;28;20058;-71
2022/01/09 02:14:35;;;;;;;2.03;1.92;;;15.40;68.00;;;;;;4116079;28;20376;-71
2022/01/09 02:17:00;;;;;;;2.67;2.25;;;15.40;67.90;;;;;;4110757;28;20097;-71
2022/01/09 02:19:23;;;;;;;2.13;2.10;;;15.40;68.00;;;;;;4111127;28;20101;-71
2022/01/09 02:21:47;;;;;;;2.60;2.50;;;15.40;68.00;;;;;;4110562;28;20050;-70
2022/01/09 02:24:10;;;;;;;2.75;2.65;;;15.40;68.10;;;;;;4110228;28;20097;-71
2022/01/09 02:26:33;;;;;;;3.03;2.60;;;15.40;68.00;;;;;;4110446;28;20054;-71
2022/01/09 02:28:56;;;;;;;2.97;2.88;;;15.40;68.10;;;;;;4112447;28;20057;-71
2022/01/09 02:31:20;;;;;;;2.40;2.30;;;15.50;68.10;;;;;;4110422;28;20058;-71
2022/01/09 02:33:43;;;;;;;2.35;2.25;;;15.60;68.00;;;;;;4108002;28;20054;-70
2022/01/09 02:36:06;;;;;;;2.63;2.53;;;15.60;67.50;;;;;;4110691;28;20195;-71
2022/01/09 02:38:31;;;;;;;2.40;2.30;;;15.70;67.30;;;;;;4110936;28;20055;-71
2022/01/09 02:40:55;;;;;;;3.40;3.20;;;15.70;67.10;;;;;;4126305;28;20050;-71
2022/01/09 02:43:18;;;;;;;2.63;2.53;;;15.80;67.00;;;;;;4113150;28;20105;-71
2022/01/09 02:45:42;;;;;;;3.10;2.90;;;15.80;66.90;;;;;;4122355;28;20081;-71
2022/01/09 02:48:06;;;;;;;2.97;2.88;;;15.90;66.70;;;;;;4110567;28;20556;-71
2022/01/09 02:50:34;;;;;;;3.63;3.35;;;15.90;66.40;;;;;;4110049;28;20110;-72
2022/01/09 02:53:00;;;;;;;3.33;3.17;;;15.90;66.40;;;;;;4110064;28;20109;-71
2022/01/09 02:55:26;;;;;;;4.50;4.13;;;15.90;66.30;;;;;;4110601;28;20051;-71
2022/01/09 02:57:52;;;;;;;4.07;3.72;;;16.00;66.20;;;;;;4110166;28;20055;-69
2022/01/09 03:00:17;;;;;;;3.83;3.53;;;15.90;66.20;;;;;;4105131;28;20106;-70
2022/01/09 03:02:40;;;;;;;3.55;3.35;;;15.90;66.30;;;;;;4109872;28;20487;-71
2022/01/09 03:05:04;;;;;;;3.30;3.20;;;15.90;66.50;;;;;;4110142;28;20046;-72
2022/01/09 03:07:27;;;;;;;4.03;3.58;;;15.90;66.50;;;;;;4110588;28;20082;-71
2022/01/09 03:09:50;;;;;;;3.70;3.50;;;15.80;66.50;;;;;;4117170;28;20549;-71
2022/01/09 03:12:15;;;;;;;3.10;3.00;;;15.80;66.70;;;;;;4110605;28;20062;-71
2022/01/09 03:14:38;;;;;;;3.25;3.00;;;15.80;66.90;;;;;;4110428;28;20097;-71
2022/01/09 03:17:02;;;;;;;3.33;3.13;;;15.80;67.10;;;;;;4110185;28;20090;-71
2022/01/09 03:19:25;;;;;;;3.50;3.20;;;15.70;67.20;;;;;;4114828;28;20050;-71
2022/01/09 03:21:48;;;;;;;3.90;3.10;;;15.70;67.40;;;;;;4110163;28;20054;-71
2022/01/09 03:24:11;;;;;;;3.40;2.95;;;15.70;67.50;;;;;;4110062;28;20050;-71
2022/01/09 03:26:34;;;;;;;3.15;2.88;;;15.60;67.50;;;;;;4110202;28;20785;-71
2022/01/09 03:28:58;;;;;;;2.65;2.45;;;15.60;68.00;;;;;;4114576;28;20042;-71
2022/01/09 03:31:21;;;;;;;5.80;2.60;;;15.50;68.30;;;;;;4109898;28;20106;-71
2022/01/09 03:33:47;;;;;;;2.70;2.17;;;15.60;68.40;;;;;;4110291;28;20117;-70
2022/01/09 03:36:10;;;;;;;5.97;2.30;;;15.70;68.10;;;;;;4110107;28;20054;-71
2022/01/09 03:38:33;;;;;;;5.43;2.25;;;15.80;67.70;;;;;;4114318;28;20104;-71
2022/01/09 03:40:56;;;;;;;4.15;2.20;;;15.80;67.30;;;;;;4110047;28;20046;-71
2022/01/09 03:43:19;;;;;;;6.43;1.77;;;15.90;67.20;;;;;;4109892;28;20055;-70
2022/01/09 03:45:44;;;;;;;8.57;2.63;;;15.90;66.90;;;;;;4117903;28;20047;-71
2022/01/09 03:48:07;;;;;;;4.10;1.70;;;15.90;66.60;;;;;;4125827;28;20042;-72
2022/01/09 03:50:32;;;;;;;7.57;2.17;;;15.90;66.80;;;;;;4110977;28;20043;-71
2022/01/09 03:52:55;;;;;;;8.60;2.20;;;15.80;66.90;;;;;;4110294;28;20101;-71
2022/01/09 03:55:20;;;;;;;6.00;1.75;;;15.80;67.20;;;;;;4117224;28;20450;-71
2022/01/09 03:57:43;;;;;;;9.73;2.10;;;15.80;67.20;;;;;;4128459;28;20081;-71
2022/01/09 04:00:08;;;;;;;8.35;2.20;;;15.70;67.40;;;;;;4117052;28;20110;-70
2022/01/09 04:02:35;;;;;;;6.78;2.25;;;15.70;67.80;;;;;;4112645;28;20054;-71
2022/01/09 04:04:58;;;;;;;9.90;2.38;;;15.70;68.10;;;;;;4116080;28;20442;-71
2022/01/09 04:07:21;;;;;;;8.45;1.98;;;15.70;68.20;;;;;;4128206;28;20133;-71
2022/01/09 04:09:46;;;;;;;14.15;2.25;;;15.80;68.00;;;;;;4116905;28;20451;-71
2022/01/09 04:12:15;;;;;;;6.15;1.80;;;15.90;67.80;;;;;;4111506;28;20051;-71
2022/01/09 04:14:38;;;;;;;7.78;1.85;;;15.90;67.40;;;;;;4113264;28;20058;-71
2022/01/09 04:17:03;;;;;;;7.10;1.70;;;15.90;67.20;;;;;;4128498;28;20101;-71
2022/01/09 04:19:27;;;;;;;10.95;2.50;;;15.90;67.30;;;;;;4120335;28;20046;-71
2022/01/09 04:21:50;;;;;;;7.00;2.03;;;16.00;67.40;;;;;;4112523;28;20094;-71
2022/01/09 04:24:14;;;;;;;7.35;2.00;;;16.10;67.10;;;;;;4110742;28;20097;-71
2022/01/09 04:26:38;;;;;;;7.43;1.67;;;16.20;66.60;;;;;;4128531;28;20467;-69
2022/01/09 04:29:01;;;;;;;8.57;2.00;;;16.30;66.20;;;;;;4121631;28;20451;-71
2022/01/09 04:31:24;;;;;;;7.68;2.22;;;16.30;66.00;;;;;;4124919;28;20081;-71
2022/01/09 04:33:47;;;;;;;8.10;2.13;;;16.30;66.00;;;;;;4128541;28;20058;-70
2022/01/09 04:36:12;;;;;;;11.23;2.28;;;16.20;66.90;;;;;;4112417;28;20101;-70
2022/01/09 04:38:35;;;;;;;4.72;1.85;;;16.20;66.30;;;;;;4111921;28;20055;-71
2022/01/09 04:40:57;;;;;;;8.57;2.17;;;16.20;66.60;;;;;;4112093;28;20054;-71
2022/01/09 04:43:21;;;;;;;14.57;2.92;;;16.20;66.60;;;;;;4112786;28;20046;-70
2022/01/09 04:45:45;;;;;;;11.73;2.90;;;16.30;66.50;;;;;;4126581;28;20062;-71
2022/01/09 04:48:10;;;;;;;9.70;2.55;;;16.30;66.30;;;;;;4120161;28;20050;-71
2022/01/09 04:50:35;;;;;;;13.20;3.45;;;16.30;66.20;;;;;;4113983;28;20051;-71
2022/01/09 04:53:05;;;;;;;18.05;3.05;;;16.30;66.30;;;;;;4113071;28;20113;-71
2022/01/09 04:55:28;;;;;;;21.55;3.83;;;16.30;66.40;;;;;;4114594;28;20054;-71
2022/01/09 04:57:51;;;;;;;26.48;3.92;;;16.20;66.40;;;;;;4111642;28;20055;-71
2022/01/09 05:00:15;;;;;;;21.83;4.13;;;16.20;66.60;;;;;;4111709;28;20058;-71
2022/01/09 05:02:38;;;;;;;28.10;4.65;;;16.10;66.90;;;;;;4111363;28;20553;-69
2022/01/09 05:05:01;;;;;;;22.20;4.68;;;16.10;67.10;;;;;;4116812;28;20046;-71
2022/01/09 05:07:24;;;;;;;26.25;4.35;;;16.10;67.20;;;;;;4111729;28;20051;-70
2022/01/09 05:09:48;;;;;;;22.83;3.88;;;16.10;67.30;;;;;;4111732;28;20101;-70
2022/01/09 05:12:11;;;;;;;17.98;3.65;;;16.10;67.40;;;;;;4111813;28;20470;-70
2022/01/09 05:14:34;;;;;;;23.63;4.28;;;16.20;67.00;;;;;;4117733;28;20556;-70
2022/01/09 05:16:57;;;;;;;21.15;4.55;;;16.30;66.50;;;;;;4096606;28;20208;-71
2022/01/09 05:19:28;;;;;;;24.02;4.07;;;16.40;66.30;;;;;;4116938;28;20046;-70
2022/01/09 05:21:51;;;;;;;24.45;4.68;;;16.40;66.10;;;;;;4127155;28;20050;-71
2022/01/09 05:24:14;;;;;;;27.75;4.50;;;16.40;66.00;;;;;;4124062;28;20117;-71
2022/01/09 05:26:38;;;;;;;22.73;4.63;;;16.30;66.10;;;;;;4111453;28;20050;-70
2022/01/09 05:29:02;;;;;;;19.73;4.07;;;16.30;66.40;;;;;;4111628;28;20051;-71
2022/01/09 05:31:25;;;;;;;24.52;5.35;;;16.20;66.70;;;;;;4111359;28;20050;-71
2022/01/09 05:33:48;;;;;;;22.80;4.97;;;16.20;66.60;;;;;;4111390;28;20058;-70
2022/01/09 05:36:11;;;;;;;18.35;4.07;;;16.20;66.70;;;;;;4110144;28;20102;-71
2022/01/09 05:38:34;;;;;;;24.10;3.78;;;16.20;66.80;;;;;;4111352;28;20344;-71
2022/01/09 05:40:57;;;;;;;21.40;3.70;;;16.20;66.90;;;;;;4123658;28;20046;-69
2022/01/09 05:43:22;;;;;;;17.63;3.75;;;16.20;66.90;;;;;;4111185;28;20170;-70
2022/01/09 05:45:45;;;;;;;23.55;3.95;;;16.20;67.00;;;;;;4114562;28;20117;-70
2022/01/09 05:48:08;;;;;;;14.27;3.13;;;16.10;66.90;;;;;;4110828;28;20055;-70
2022/01/09 05:50:31;;;;;;;16.98;4.10;;;16.10;67.10;;;;;;4111125;28;20054;-71
2022/01/09 05:52:54;;;;;;;21.45;4.22;;;16.00;67.30;;;;;;4110879;28;20494;-71
2022/01/09 05:55:17;;;;;;;11.45;3.05;;;16.00;68.50;;;;;;4112609;28;20195;-71
2022/01/09 05:57:40;;;;;;;21.88;3.95;;;16.00;67.80;;;;;;4110814;28;20089;-70
2022/01/09 06:00:06;;;;;;;18.33;3.58;;;16.00;67.90;;;;;;4111005;28;20086;-71
2022/01/09 06:02:30;;;;;;;20.88;3.13;;;16.00;68.10;;;;;;4110813;28;20054;-71
2022/01/09 06:04:53;;;;;;;18.77;3.30;;;16.00;68.00;;;;;;4112179;28;20051;-70
2022/01/09 06:07:16;;;;;;;18.92;4.05;;;16.00;67.80;;;;;;4110943;28;20059;-71
2022/01/09 06:09:39;;;;;;;17.75;3.40;;;16.00;67.70;;;;;;4110849;28;20054;-71
2022/01/09 06:12:02;;;;;;;16.95;3.20;;;16.00;67.80;;;;;;4110866;28;20442;-71
2022/01/09 06:14:25;;;;;;;15.45;3.25;;;15.90;67.90;;;;;;4110307;28;20471;-71
2022/01/09 06:16:49;;;;;;;16.95;3.40;;;15.90;68.00;;;;;;4110359;28;20051;-63
2022/01/09 06:19:13;;;;;;;26.48;3.72;;;16.00;68.20;;;;;;4110574;28;20051;-63
2022/01/09 06:21:36;;;;;;;18.98;3.42;;;16.00;68.10;;;;;;4110807;28;20054;-63
2022/01/09 06:23:59;;;;;;;16.15;3.50;;;16.00;67.90;;;;;;4110589;28;20054;-63
2022/01/09 06:26:22;;;;;;;15.75;3.03;;;16.00;67.80;;;;;;4123882;28;20085;-63
2022/01/09 06:28:45;;;;;;;21.38;3.72;;;16.00;67.60;;;;;;4110396;28;20047;-63
2022/01/09 06:31:08;;;;;;;23.38;3.60;;;16.00;67.80;;;;;;4110129;28;20062;-63
2022/01/09 06:33:33;;;;;;;19.75;3.58;;;16.00;67.90;;;;;;4122924;28;20057;-63
2022/01/09 06:35:56;;;;;;;22.13;4.05;;;16.00;68.00;;;;;;4124239;28;20093;-63
2022/01/09 06:38:19;;;;;;;16.30;3.25;;;16.00;67.80;;;;;;4126561;28;20085;-63
2022/01/09 06:40:41;;;;;;;15.90;3.42;;;16.00;67.80;;;;;;4126755;28;20050;-63
2022/01/09 06:43:05;;;;;;;18.48;3.47;;;16.00;67.80;;;;;;4093202;28;20059;-63
2022/01/09 06:45:28;;;;;;;14.15;2.80;;;16.00;68.00;;;;;;4121020;28;20458;-63
2022/01/09 06:47:50;;;;;;;12.13;2.90;;;16.00;68.10;;;;;;4126300;28;20423;-63
2022/01/09 06:50:15;;;;;;;13.60;2.35;;;15.90;68.10;;;;;;4126548;28;20559;-63
2022/01/09 06:52:38;;;;;;;17.98;2.78;;;15.90;68.90;;;;;;4112606;28;20117;-63
2022/01/09 06:55:00;;;;;;;14.40;2.88;;;16.00;68.10;;;;;;4119561;28;20049;-63
2022/01/09 06:57:24;;;;;;;18.73;3.50;;;16.00;68.20;;;;;;4125821;28;20450;-64
2022/01/09 06:59:47;;;;;;;18.70;3.75;;;16.00;68.10;;;;;;4126369;28;20046;-63
2022/01/09 07:02:10;;;;;;;16.65;3.42;;;16.20;67.70;;;;;;4113526;28;20502;-64
2022/01/09 07:04:33;;;;;;;13.82;2.63;;;16.20;67.20;;;;;;4118243;28;20050;-63
2022/01/09 07:06:58;;;;;;;13.75;2.75;;;16.30;66.80;;;;;;4126035;28;20054;-63
2022/01/09 07:09:22;;;;;;;17.70;3.00;;;16.30;66.70;;;;;;4124879;28;20054;-62
2022/01/09 07:11:46;;;;;;;14.68;2.70;;;16.30;66.50;;;;;;4116870;28;20573;-63
2022/01/09 07:14:08;;;;;;;14.95;3.00;;;16.30;66.60;;;;;;4114623;28;20170;-62
2022/01/09 07:16:32;;;;;;;15.65;2.78;;;16.30;68.20;;;;;;4125872;28;20426;-62
2022/01/09 07:18:55;;;;;;;11.15;2.67;;;16.30;67.60;;;;;;4126243;28;20050;-62
2022/01/09 07:21:18;;;;;;;10.43;2.38;;;16.20;67.30;;;;;;4121013;28;20110;-62
2022/01/09 07:23:43;;;;;;;16.63;3.10;;;16.20;67.40;;;;;;4110515;28;20105;-62
2022/01/09 07:26:06;;;;;;;11.23;2.53;;;16.10;67.30;;;;;;4126239;28;20787;-63
2022/01/09 07:28:28;;;;;;;11.25;2.45;;;16.10;67.60;;;;;;4127022;28;20104;-62
2022/01/09 07:30:52;;;;;;;15.88;3.40;;;16.00;68.00;;;;;;4126201;28;20047;-62
2022/01/09 07:33:15;;;;;;;11.02;3.15;;;16.00;68.30;;;;;;4112429;28;20063;-62
2022/01/09 07:35:38;;;;;;;17.40;3.28;;;16.00;68.40;;;;;;4128669;28;20046;-62
2022/01/09 07:38:01;;;;;;;15.38;3.00;;;16.00;68.30;;;;;;4128947;28;20054;-62
2022/01/09 07:40:25;;;;;;;13.38;2.72;;;16.00;68.20;;;;;;4128882;28;20105;-62
2022/01/09 07:42:49;;;;;;;13.70;2.78;;;16.00;69.00;;;;;;4121742;28;20051;-61
2022/01/09 07:45:12;;;;;;;14.27;2.88;;;16.00;68.10;;;;;;4113236;28;20106;-62
2022/01/09 07:47:35;;;;;;;12.00;2.65;;;16.00;68.10;;;;;;4113032;28;20047;-62
2022/01/09 07:49:58;;;;;;;14.05;2.53;;;16.00;67.90;;;;;;4112995;28;20051;-62
2022/01/09 07:52:21;;;;;;;12.75;2.63;;;16.00;67.90;;;;;;4101446;28;20058;-63
2022/01/09 07:54:44;;;;;;;12.70;2.35;;;16.00;67.80;;;;;;4126455;28;20058;-62
2022/01/09 07:57:09;;;;;;;15.93;2.40;;;16.00;68.80;;;;;;4113209;28;20071;-62
2022/01/09 07:59:32;;;;;;;14.75;2.45;;;16.00;67.70;;;;;;4112257;28;20097;-63
2022/01/09 08:01:55;;;;;;;14.25;2.67;;;16.00;67.50;;;;;;4112880;28;20098;-62
2022/01/09 08:04:18;;;;;;;14.88;2.35;;;16.00;67.30;;;;;;4112561;28;20058;-63
2022/01/09 08:06:41;;;;;;;13.10;2.60;;;16.00;66.80;;;;;;4122692;28;20062;-63
2022/01/09 08:09:04;;;;;;;9.98;2.30;;;16.00;66.90;;;;;;4128490;28;20097;-63
2022/01/09 08:11:27;;;;;;;16.08;3.00;;;16.00;66.50;;;;;;4115131;28;20105;-62
2022/01/09 08:13:52;;;;;;;12.57;3.05;;;16.00;67.10;;;;;;4096720;28;20222;-63
2022/01/09 08:16:15;;;;;;;14.05;2.95;;;16.00;66.10;;;;;;4108754;28;20499;-63
2022/01/09 08:18:38;;;;;;;10.25;1.80;;;15.90;66.10;;;;;;4099066;28;20047;-71
2022/01/09 08:21:01;;;;;;;6.85;2.15;;;15.90;66.20;;;;;;4112479;28;20046;-71
2022/01/09 08:23:25;;;;;;;19.77;3.05;;;15.90;66.00;;;;;;4112391;28;20046;-71
2022/01/09 08:25:48;;;;;;;11.63;2.28;;;15.90;65.60;;;;;;4126762;28;20042;-70
2022/01/09 08:28:12;;;;;;;17.02;2.55;;;16.00;65.30;;;;;;4126718;28;20046;-70
2022/01/09 08:30:37;;;;;;;12.20;2.75;;;16.00;65.30;;;;;;4110673;28;20051;-70
2022/01/09 08:33:00;;;;;;;13.15;2.50;;;16.00;64.90;;;;;;4111974;28;20097;-70
2022/01/09 08:35:23;;;;;;;15.10;2.03;;;16.00;64.80;;;;;;4111888;28;20047;-69
2022/01/09 08:37:47;;;;;;;11.77;2.17;;;16.00;64.90;;;;;;4111940;28;20582;-70
2022/01/09 08:40:11;;;;;;;14.10;2.40;;;16.00;64.70;;;;;;4106562;28;20058;-71
2022/01/09 08:42:39;;;;;;;12.43;2.88;;;16.10;64.20;;;;;;4111856;28;20997;-70
2022/01/09 08:45:03;;;;;;;12.20;2.40;;;16.20;63.30;;;;;;4122726;28;20054;-71
2022/01/09 08:47:27;;;;;;;16.75;3.00;;;16.30;62.70;;;;;;4104269;28;20059;-71
2022/01/09 08:49:50;;;;;;;9.75;2.20;;;16.40;62.50;;;;;;4111909;28;20050;-70
2022/01/09 08:52:13;;;;;;;18.58;2.72;;;16.40;62.50;;;;;;4111637;28;20074;-70
2022/01/09 08:54:36;;;;;;;11.90;2.22;;;16.40;62.40;;;;;;4105496;28;20364;-70
2022/01/09 08:56:59;;;;;;;14.48;2.20;;;16.30;62.40;;;;;;4111803;28;20055;-71
2022/01/09 08:59:23;;;;;;;8.50;2.30;;;16.30;62.50;;;;;;4111620;28;20050;-70
2022/01/09 09:01:47;;;;;;;11.77;2.30;;;16.20;62.50;;;;;;4111870;28;20051;-70
2022/01/09 09:04:11;;;;;;;12.98;2.35;;;16.10;62.70;;;;;;4117752;28;20454;-70
2022/01/09 09:06:34;;;;;;;8.98;2.03;;;16.00;62.90;;;;;;4127836;28;20046;-70
2022/01/09 09:08:57;;;;;;;14.50;2.60;;;15.90;63.30;;;;;;4127877;28;20054;-71
2022/01/09 09:11:20;;;;;;;10.82;1.98;;;15.90;63.60;;;;;;4127387;28;20050;-70
2022/01/09 09:13:44;;;;;;;8.15;2.10;;;15.90;63.60;;;;;;4125955;28;20043;-69
2022/01/09 09:16:08;;;;;;;14.60;2.42;;;15.90;63.40;;;;;;4122011;28;20407;-70
2022/01/09 09:18:31;;;;;;;12.52;2.25;;;15.90;63.50;;;;;;4104683;28;20055;-70
2022/01/09 09:20:57;;;;;;;9.90;2.25;;;15.90;63.30;;;;;;4109015;28;20051;-70
2022/01/09 09:23:20;;;;;;;10.82;2.35;;;15.90;63.30;;;;;;4104835;28;20117;-70
2022/01/09 09:25:43;;;;;;;10.60;2.33;;;15.90;63.60;;;;;;4126494;28;20108;-70
2022/01/09 09:28:06;;;;;;;8.20;2.03;;;15.80;63.60;;;;;;4111243;28;20055;-71
2022/01/09 09:30:30;;;;;;;13.93;2.85;;;15.70;63.90;;;;;;4111506;28;20050;-71
2022/01/09 09:32:53;;;;;;;9.35;2.22;;;15.70;64.10;;;;;;4109584;28;20050;-70
2022/01/09 09:35:16;;;;;;;9.90;2.08;;;15.60;64.50;;;;;;4110299;28;20050;-70
2022/01/09 09:37:41;;;;;;;10.23;2.00;;;15.50;64.70;;;;;;4111241;28;20463;-71
2022/01/09 09:40:05;;;;;;;10.38;2.80;;;15.50;65.60;;;;;;4111346;28;20058;-71
2022/01/09 09:42:28;;;;;;;11.85;2.47;;;15.60;65.70;;;;;;4111225;28;20050;-71
2022/01/09 09:44:51;;;;;;;10.95;2.38;;;16.00;64.40;;;;;;4112184;28;20050;-69
2022/01/09 09:47:18;;;;;;;10.07;1.95;;;16.60;62.20;;;;;;4110719;28;20059;-72
2022/01/09 09:49:41;;;;;;;13.00;2.28;;;17.30;59.80;;;;;;4111311;28;20408;-71
2022/01/09 09:52:06;;;;;;;7.35;2.28;;;17.90;58.00;;;;;;4110389;28;20047;-71
2022/01/09 09:54:30;;;;;;;12.43;2.42;;;18.50;57.30;;;;;;4120144;28;20054;-69
2022/01/09 09:56:53;;;;;;;10.43;1.92;;;19.10;55.10;;;;;;4126792;28;20100;-71
2022/01/09 09:59:24;;;;;;;6.80;2.35;;;19.70;53.80;;;;;;4127009;28;20051;-71
2022/01/09 10:01:47;;;;;;;7.03;2.30;;;20.20;52.50;;;;;;4127035;28;20053;-71
2022/01/09 10:04:10;;;;;;;9.85;1.98;;;20.70;51.50;;;;;;4117284;28;20055;-70
2022/01/09 10:06:41;;;;;;;5.60;1.88;;;21.00;50.50;;;;;;4111011;28;20055;-71
2022/01/09 10:09:09;;;;;;;6.65;1.98;;;21.30;49.80;;;;;;4109971;28;20073;-71
2022/01/09 10:11:42;;;;;;;7.90;2.15;;;21.30;49.30;;;;;;4110537;28;20062;-71
2022/01/09 10:14:13;;;;;;;9.93;1.88;;;21.30;50.00;;;;;;4118653;28;20484;-71
2022/01/09 10:16:36;;;;;;;8.88;2.15;;;21.20;49.40;;;;;;4126931;28;20066;-71
2022/01/09 10:18:59;;;;;;;8.57;1.75;;;21.10;49.70;;;;;;4112915;28;20105;-71
2022/01/09 10:21:25;;;;;;;8.82;2.00;;;20.90;50.00;;;;;;4110686;28;20124;-71
2022/01/09 10:24:02;;;;;;;5.10;1.85;;;20.70;50.40;;;;;;4118101;28;20109;-70
2022/01/09 10:26:26;;;;;;;7.43;2.05;;;20.40;51.00;;;;;;4126223;28;20442;-71
2022/01/09 10:28:50;;;;;;;7.40;2.00;;;20.20;51.90;;;;;;4114491;28;20120;-70
2022/01/09 10:31:18;;;;;;;7.20;1.80;;;20.10;52.20;;;;;;4110333;28;20119;-69
2022/01/09 10:33:41;;;;;;;8.65;1.90;;;20.00;52.50;;;;;;4114615;28;20106;-71
2022/01/09 10:36:05;;;;;;;6.60;1.80;;;19.90;52.60;;;;;;4112369;28;20050;-71
2022/01/09 10:38:30;;;;;;;7.20;1.90;;;19.80;52.50;;;;;;4119369;28;20457;-72
2022/01/09 10:40:57;;;;;;;7.18;1.80;;;19.80;52.70;;;;;;4113897;28;20549;-70
2022/01/09 10:43:22;;;;;;;8.32;2.00;;;19.80;52.80;;;;;;4108596;28;20046;-71
2022/01/09 10:45:49;;;;;;;8.02;1.92;;;19.70;52.80;;;;;;4114386;28;20054;-71
2022/01/09 10:48:14;;;;;;;4.88;1.65;;;19.70;52.90;;;;;;4115909;28;20062;-71
2022/01/09 10:50:40;;;;;;;6.10;1.70;;;19.70;52.80;;;;;;4114539;28;20047;-63
2022/01/09 10:53:21;;;;;;;6.82;1.80;;;19.70;52.80;;;;;;4114704;28;20054;-63
2022/01/09 10:55:46;;;;;;;8.15;1.90;;;19.80;52.70;;;;;;4109650;28;20051;-63
2022/01/09 10:58:20;;;;;;;6.43;2.25;;;19.80;52.60;;;;;;4117342;28;20109;-71
2022/01/09 11:00:43;;;;;;;5.68;1.77;;;19.80;52.60;;;;;;4118544;28;20078;-70
2022/01/09 11:03:08;;;;;;;6.93;1.92;;;19.80;52.60;;;;;;4115518;28;20042;-63
2022/01/09 11:05:31;;;;;;;7.35;1.52;;;19.80;52.50;;;;;;4115532;28;20374;-69
2022/01/09 11:07:54;;;;;;;8.35;1.73;;;19.80;52.40;;;;;;4123227;28;20054;-71
2022/01/09 11:10:18;;;;;;;5.45;2.08;;;19.90;52.50;;;;;;4113353;28;20058;-72
2022/01/09 11:12:47;;;;;;;5.28;1.60;;;19.80;52.40;;;;;;4111601;28;20078;-71
2022/01/09 11:15:12;;;;;;;9.70;1.52;;;19.90;52.40;;;;;;4111199;28;20062;-70
2022/01/09 11:17:35;;;;;;;6.68;1.70;;;19.80;52.20;;;;;;4119229;28;20133;-65
2022/01/09 11:20:00;;;;;;;10.02;2.10;;;19.80;52.30;;;;;;4119482;28;20050;-61
2022/01/09 11:22:24;;;;;;;6.18;1.65;;;19.90;52.10;;;;;;4114663;28;20054;-63
2022/01/09 11:25:11;;;;;;;6.32;1.83;;;19.80;52.00;;;;;;4124910;28;20053;-70
2022/01/09 11:27:59;;;;;;;9.43;2.03;;;19.80;52.40;;;;;;4121117;28;20054;-70
2022/01/09 11:30:32;;;;;;;8.00;1.77;;;19.60;52.60;;;;;;4109919;28;20054;-62
2022/01/09 11:33:11;;;;;;;7.15;1.90;;;19.50;52.80;;;;;;4110241;28;20054;-62
2022/01/09 11:35:46;;;;;;;7.90;1.77;;;19.50;53.10;;;;;;4113403;28;20487;-62
2022/01/09 11:38:16;;;;;;;9.63;2.08;;;19.40;53.10;;;;;;4110895;28;20447;-63
2022/01/09 11:40:39;;;;;;;5.30;1.70;;;19.50;53.20;;;;;;4133426;28;20050;-71
2022/01/09 11:43:05;;;;;;;6.80;2.20;;;19.60;53.20;;;;;;4122585;28;20557;-71
2022/01/09 11:45:51;;;;;;;4.43;1.52;;;19.70;53.20;;;;;;4114619;28;20066;-71
2022/01/09 11:48:15;;;;;;;5.00;1.40;;;19.90;52.80;;;;;;4110102;28;20055;-71
2022/01/09 11:51:15;;;;;;;8.38;1.73;;;19.90;52.50;;;;;;4112681;28;20055;-63
2022/01/09 11:53:58;;;;;;;1.65;0.93;;;20.10;52.50;;;;;;4109218;28;20050;-63
2022/01/09 11:56:46;;;;;;;9.27;1.50;;;20.20;52.30;;;;;;4119352;28;20130;-71
2022/01/09 11:59:20;;;;;;;4.68;1.30;;;20.10;51.70;;;;;;4109832;28;20055;-71
2022/01/09 12:01:43;;;;;;;7.00;1.50;;;20.10;51.80;;;;;;4121132;28;20050;-70
2022/01/09 12:04:28;;;;;;;6.38;2.08;;;20.10;51.70;;;;;;4119884;28;20113;-71
2022/01/09 12:06:56;;;;;;;7.80;1.63;;;20.10;51.60;;;;;;4108918;28;20105;-71
2022/01/09 12:09:31;;;;;;;3.53;1.60;;;20.00;51.70;;;;;;4109992;28;20055;-63
2022/01/09 12:12:09;;;;;;;3.22;1.33;;;19.80;52.10;;;;;;4108342;28;20043;-63
2022/01/09 12:14:54;;;;;;;6.90;1.40;;;19.70;52.50;;;;;;4111850;28;20093;-63
2022/01/09 12:17:39;;;;;;;9.05;1.67;;;19.60;52.50;;;;;;4108923;28;20479;-70
2022/01/09 12:20:05;;;;;;;7.13;1.80;;;19.60;52.60;;;;;;4119400;28;20046;-71
2022/01/09 12:23:07;;;;;;;10.73;2.00;;;19.50;53.00;;;;;;4124223;28;20054;-63
2022/01/09 12:25:50;;;;;;;7.95;1.48;;;19.50;53.00;;;;;;4109141;28;20054;-63
2022/01/09 12:28:15;;;;;;;3.50;1.63;;;19.50;53.20;;;;;;4115711;28;20050;-63
2022/01/09 12:30:50;;;;;;;3.65;1.17;;;19.60;53.20;;;;;;4114983;28;20461;-62